Board Camp, AR

7:21 PM CDT en Octubre 01, 2014 (GMT -0500)
Mena | Change Station
CLOSE
Current Station
Aeropuerto
Location: Mena,
Altura: 1079 ft
Estaciones meteorológicas cercanas

Alt 1079 ft 34.55 °N, 94.20 °W | Updated 6 minutes ago

Parcialmente nublado
Parcialmente nublado
81 ° F
Sensación térmica 85 ° F
N
0
Viento Variable Viento desde Norte

Hoy
Alta -- | Baja -- ° F
--% Posibilidad de precipitaciones
Ayer
Alta -- | Baja -- ° F
Precip. -- pul
7:11 AM 7:00 PM
Cuarto creciente, 52% visible
Presión 29.83 pul
Visibilidad 10.0 Millas
Nubes Despejado
Índice de calor 85 ° F
Punto de rocío 72 ° F
Humedad 74%
Precipitaciones 0.00 pul
Espesor de la nieve No disponible.
UV 0 de una escala de 12
Polen 9.00 de una escala de 12
Calidad del aire No disponible.
Flu Activity No disponible.
METAR KMEZ 020015Z AUTO 00000KT 10SM CLR 27/22 A2983 RMK AO2

More Conditions Fewer Conditions

Presión 29.83 pul
Visibilidad 10.0 Millas
Nubes Despejado
Índice de calor 85 ° F
Punto de rocío 72 ° F
Humedad 74%
Precipitaciones 0.00 pul
Espesor de la nieve No disponible.
UV 0 de una escala de 12
Polen 9.00 de una escala de 12
Calidad del aire No disponible.
Flu Activity No disponible.
METAR KMEZ 020015Z AUTO 00000KT 10SM CLR 27/22 A2983 RMK AO2

More Conditions Fewer Conditions

10-Day Weather Forecast

Almanac

Astronomía

Oct. 01, 2014 Salida Puesta
Hora real 7:11 AM CDT 7:00 PM CDT
Crepúsculo civil 6:46 AM CDT 7:25 PM CDT
Crepúsculo náutico 6:17 AM CDT 7:55 PM CDT
Crepúsculo astronómico 5:47 AM CDT 8:24 PM CDT
Luna 2:02 PM CDT (10/1) Sin puesta de luna
Horas de luz 12h 39m
Horas de luz
11h 49m
Tomorrow will be 2m 8s shorter.
Cuarto creciente, 52% of the Moon is Illuminated
Hoy
Cuarto creciente
Oct 8
Luna llena
Oct 15
Cuarto menguante
Oct 23
Nueva
Oct 30
Cuarto creciente

Extremos de hoy

Máximos del estado Bajos del estado

Community

WunderPhotos

Upload Photos

1,758,097 ¡fotos cargadas!

WunderBlogs® & News

Nearby

Grosos de nieve

Estación Profundido Altura
No tenemos constancia de nieve nueva.

Actividad de terremotos

Ciudad Distance Mag. Tiempo y dato
No hay informes recientes de la actividad sísmica.
Magnitud mínima muestra es 2,5.

Temperaturas de aguas costeras

Lugar Temperatura
Sin partes meteorológicos de las estaciones

Estaciones meteorológicas cercanas